Links Sitemap Venhuizerweer voor mobiel

AMSTERDAM SCHIPHOL:
Amsterdam Airport Schiphol, Netherlands (EHAM) 52-18N 004-46E -2M
Dec 18, 2022 - 01:55 PM EST / 2022.12.18 1855 UTC
Wind: from the SSE (150 degrees) at 16 MPH (14 KT):0
Visibility: greater than 7 mile(s):0
Sky conditions: mostly clear
Temperature: 32 F (0 C)
Windchill: 21 F (-6 C):1
Dew Point: 26 F (-3 C)
Relative Humidity: 80%
Pressure (altimeter): 30.09 in. Hg (1019 hPa)
ob: EHAM 181855Z 15014KT 9999 FEW025 00/M03 Q1019 BECMG 7000 -RA
cycle: 19
DEELEN:
Deelen, Netherlands (EHDL) 52-04N 005-53E 52M
Dec 18, 2022 - 01:55 PM EST / 2022.12.18 1855 UTC
Wind: from the SSE (150 degrees) at 10 MPH (9 KT) (direction variable):0
Visibility: greater than 7 mile(s):0
Sky conditions: overcast
Temperature: 30 F (-1 C)
Windchill: 21 F (-6 C):1
Dew Point: 23 F (-5 C)
Relative Humidity: 74%
Pressure (altimeter): 30.15 in. Hg (1021 hPa)
ob: EHDL 181855Z AUTO 15009KT 090V210 9999 FEW078 OVC085 M01/M05 Q1021 BLU
cycle: 19
DE KOOY:
De Kooy, Netherlands (EHKD) 52-55N 004-47E 14M
Dec 18, 2022 - 01:55 PM EST / 2022.12.18 1855 UTC
Wind: from the S (170 degrees) at 17 MPH (15 KT) (direction variable):0
Visibility: greater than 7 mile(s):0
Sky conditions: mostly cloudy
Temperature: 32 F (0 C)
Windchill: 21 F (-6 C):1
Dew Point: 24 F (-4 C)
Relative Humidity: 74%
Pressure (altimeter): 30.06 in. Hg (1018 hPa)
ob: EHKD 181855Z AUTO 17015KT 140V200 9999 SCT049 BKN054 BKN069 M00/M04 Q1018 BLU
cycle: 19
EELDE:
Groningen Airport Eelde, Netherlands (EHGG) 53-08N 006-35E 4M
Dec 18, 2022 - 01:55 PM EST / 2022.12.18 1855 UTC
Wind: from the SSE (150 degrees) at 9 MPH (8 KT) (direction variable):0
Visibility: greater than 7 mile(s):0
Temperature: 30 F (-1 C)
Windchill: 21 F (-6 C):1
Dew Point: 23 F (-5 C)
Relative Humidity: 74%
Pressure (altimeter): 30.15 in. Hg (1021 hPa)
ob: EHGG 181855Z AUTO 15008KT 110V190 9999 NSC M01/M05 Q1021 NOSIG
cycle: 19
EINDHOVEN:
Eindhoven, Netherlands (EHEH) 51-27N 005-25E 28M
Dec 18, 2022 - 01:55 PM EST / 2022.12.18 1855 UTC
Wind: from the SE (140 degrees) at 8 MPH (7 KT) (direction variable):0
Visibility: greater than 7 mile(s):0
Sky conditions: mostly cloudy
Temperature: 32 F (0 C)
Windchill: 24 F (-4 C):1
Dew Point: 24 F (-4 C)
Relative Humidity: 74%
Pressure (altimeter): 30.15 in. Hg (1021 hPa)
ob: EHEH 181855Z AUTO 14007KT 110V190 9999 FEW053 SCT065 BKN076 00/M04 Q1021 BLU NOSIG
cycle: 19
GILZE-RIJEN:
Gilze-Rijen, Netherlands (EHGR) 51-34N 004-56E 24M
Dec 18, 2022 - 01:55 PM EST / 2022.12.18 1855 UTC
Wind: from the SSE (160 degrees) at 8 MPH (7 KT) (direction variable):0
Visibility: 3 mile(s):0
Sky conditions: overcast
Weather: light precipitation
Temperature: 32 F (0 C)
Windchill: 24 F (-4 C):1
Dew Point: 28 F (-2 C)
Relative Humidity: 86%
Pressure (altimeter): 30.12 in. Hg (1020 hPa)
ob: EHGR 181855Z AUTO 16007KT 130V200 6000 -UP SCT033 BKN043 OVC048 00/M02 Q1020 REFZUP WHT
cycle: 19
LEEUWARDEN:
Leeuwarden, Netherlands (EHLW) 53-13N 005-46E 11M
Dec 18, 2022 - 01:55 PM EST / 2022.12.18 1855 UTC
Wind: from the SSE (160 degrees) at 13 MPH (11 KT) (direction variable):0
Visibility: greater than 7 mile(s):0
Sky conditions: overcast
Temperature: 32 F (0 C)
Windchill: 23 F (-5 C):1
Dew Point: 23 F (-5 C)
Relative Humidity: 69%
Pressure (altimeter): 30.09 in. Hg (1019 hPa)
ob: EHLW 181855Z AUTO 16011KT 130V190 9999 SCT088 BKN097 OVC110 00/M05 Q1019 BLU
cycle: 19
MAASTRICHT:
Maastricht Airport Zuid Limburg, Netherlands (EHBK) 50-55N 005-47E 116M
Dec 18, 2022 - 01:55 PM EST / 2022.12.18 1855 UTC
Wind: from the SSE (160 degrees) at 9 MPH (8 KT):0
Visibility: greater than 7 mile(s):0
Sky conditions: mostly clear
Temperature: 33 F (1 C)
Windchill: 24 F (-4 C):1
Dew Point: 24 F (-4 C)
Relative Humidity: 69%
Pressure (altimeter): 30.15 in. Hg (1021 hPa)
ob: EHBK 181855Z AUTO 16008KT 9999 FEW047 01/M04 Q1021 NOSIG
cycle: 19
ROTTERDAM ZESTIENHOVEN:
Rotterdam Airport Zestienhoven, Netherlands (EHRD) 51-57N 004-27E -4M
Dec 18, 2022 - 01:55 PM EST / 2022.12.18 1855 UTC
Wind: from the S (170 degrees) at 15 MPH (13 KT) (direction variable):0
Visibility: 4 mile(s):0
Sky conditions: mostly clear
Weather: light snow, rain, drizzle
Temperature: 32 F (0 C)
Windchill: 21 F (-6 C):1
Dew Point: 28 F (-2 C)
Relative Humidity: 86%
Pressure (altimeter): 30.09 in. Hg (1019 hPa)
ob: EHRD 181855Z AUTO 17013KT 130V210 7000 -SNRADZ FEW047 00/M02 Q1019 REFZDZ NOSIG
cycle: 19
SOESTERBERG:
Soesterberg, Netherlands (EHSB) 52-08N 005-17E 25M
Nov 20, 2008 - 04:25 AM EST / 2008.11.20 0925 UTC
Wind: from the W (280 degrees) at 16 MPH (14 KT):0
Visibility: greater than 7 mile(s):0
Temperature: 51 F (11 C)
Dew Point: 48 F (9 C)
Relative Humidity: 87%
Pressure (altimeter): 29.83 in. Hg (1010 hPa)
ob: EHSB 200925Z AUTO 28014KT 9999 // 11/09 Q1010
cycle: 9
TWENTE:
Twenthe, Netherlands (EHTW) 52-16N 006-54E 57M
Apr 07, 2008 - 08:25 AM EDT / 2008.04.07 1225 UTC
Wind: from the N (010 degrees) at 7 MPH (6 KT):0
Sky conditions: mostly cloudy
Temperature: 46 F (8 C)
Dew Point: 24 F (-4 C)
Relative Humidity: 42%
Pressure (altimeter): 29.59 in. Hg (1002 hPa)
ob: EHTW 071225Z AUTO 01006KT //// // BKN200/// 08/M04 Q1002 RE//
cycle: 12
VALKENBURG:
Valkenburg, Netherlands (EHVB) 52-11N 004-25E 2M
Apr 01, 2010 - 03:55 AM EDT / 2010.04.01 0755 UTC
Wind: from the WSW (250 degrees) at 20 MPH (17 KT):0
Sky conditions: mostly cloudy
Temperature: 41 F (5 C)
Dew Point: 33 F (1 C)
Relative Humidity: 75%
Pressure (altimeter): 29.62 in. Hg (1003 hPa)
ob: EHVB 010755Z AUTO 25017KT 9999NDV FEW021/// BKN037/// 05/01 Q1003 BLU
cycle: 8
VLIELAND:
Vlieland, Netherlands (EHVL) 53-15N 004-55E 12M
Dec 18, 2022 - 01:55 PM EST / 2022.12.18 1855 UTC
Wind: from the S (170 degrees) at 22 MPH (19 KT):0
Visibility: greater than 7 mile(s):0
Sky conditions: mostly cloudy
Temperature: 33 F (1 C)
Windchill: 21 F (-6 C):1
Dew Point: 26 F (-3 C)
Relative Humidity: 74%
Pressure (altimeter): 30.06 in. Hg (1018 hPa)
ob: EHVL 181855Z AUTO 17019KT 9999 FEW067 SCT073 BKN079 01/M03 Q1018 BLU
cycle: 19
VOLKEL:
Volkel, Netherlands (EHVK) 51-39N 005-42E 21M
Dec 18, 2022 - 01:55 PM EST / 2022.12.18 1855 UTC
Wind: from the SE (140 degrees) at 7 MPH (6 KT) (direction variable):0
Visibility: greater than 7 mile(s):0
Sky conditions: mostly cloudy
Temperature: 32 F (0 C)
Windchill: 24 F (-4 C):1
Dew Point: 24 F (-4 C)
Relative Humidity: 74%
Pressure (altimeter): 30.15 in. Hg (1021 hPa)
ob: EHVK 181855Z AUTO 14006KT 110V170 9999 FEW056 SCT062 BKN070 M00/M04 Q1021 BLU
cycle: 19
WOENSDRECHT:
Woensdrecht, Netherlands (EHWO) 51-27N 004-20E 17M
Dec 18, 2022 - 01:55 PM EST / 2022.12.18 1855 UTC
Wind: from the SSE (160 degrees) at 6 MPH (5 KT) (direction variable):0
Visibility: 3 mile(s):0
Sky conditions: overcast
Weather: heavy freezing drizzle
Temperature: 32 F (0 C)
Windchill: 26 F (-3 C):1
Dew Point: 28 F (-2 C)
Relative Humidity: 86%
Pressure (altimeter): 30.12 in. Hg (1020 hPa)
ob: EHWO 181855Z AUTO 16005KT 110V200 6000 +FZDZ FEW032 BKN046 OVC052 M00/M02 Q1020 WHT
cycle: 19
Copyright © 2005 - 2023 Venhuizerweer - Alle Rechten Voorbehouden